SVSJ weather

Central Bolívar Airport
Zulia, Venezuela

Public forecast

Using degrees Celsius for public forecast. Weather courtesy of forecast.io.

Closest aviation weather report (METAR) to Central Bolívar Airport

Report is more than 6 hours old.

Closest report is Santa Bárbara del Zulia Airport, 3.5 nm (6.5 km) N. Retrieved 2016/06/08 18:00 UTC (4 years ago):

SVSZ 081800Z 00000KT CAVOK XX/XX Q1012

Closest aviation forecast (TAF) to Central Bolívar Airport

Closest forecast is Camilo Daza International Airport, 68.6 nm (127.0 km) SSW. Retrieved 2020/02/23 06:48 UTC (4 hours ago):

TAF TAF SKCC 230430Z 2306/2406 VRB02KT 9000 SCT018 SCT080 TEMPO 2306/2308 6000 RA SCT017CB TEMPO 2309/2313 4000 BCFG -DZ SCT010 BECMG 2316/2318 02010KT TEMPO 2320/2322 7000 RA SCT017TCU TX31/2319Z TN22/2311Z